FMI weather

Kalemie Airport
Katanga Province, Congo (Kinshasa)

Public forecast

Using degrees Celsius for public forecast. Weather courtesy of forecast.io.

METAR (pilot weather report)

Closest report is Kigoma Airport, 64.5 nm (119.5 km) NNE. Retrieved 2019/05/19 17:00 UTC (1 hour ago):

HTKA 191700Z 00000KT 9999 FEW022 FEW023CB SCT090 23/20 Q1017

TAF (pilot weather forecast)

Forecast is more than 12 hours old.

Closest forecast is Kigoma Airport, 64.5 nm (119.5 km) NNE. Retrieved 2019/04/07 12:27 UTC (1 month ago):

TAF HTKA 071120Z 0712/0812 12013KT 9999 FEW026 FEW027CB BECMG 0714/0716 00000KT